ADDS TAF Board (Experimental) INFO Settings

IDs: Format: Expanded Condensed

KIAD - Washington/Dulles In, VA, US

Issued at 1143 UTC 03 Mar 2015
Updated at: 1500 UTC 03 Mar 2015
Time1452Z 03/15Z 03/16Z 03/17Z 03/18Z 03/19Z 03/20Z 03/21Z 03/22Z 03/23Z 04/00Z 04/01Z 04/02Z 04/03Z
Type OBS PRVL PRVL PRVL PRVL
  [TEMP]  
PRVL
  [TEMP]  
PRVL
  [TEMP]  
PRVL
  [TEMP]  
PRVL
  [TEMP]  
PRVL
  [TEMP]  
PRVL
  [TEMP]  
PRVL PRVL PRVL
VIS 10 >6 >6 >6 >6
  [6]  
>6
  [6]  
>6
  [6]  
>6
  [6]  
3
  [4]  
3
  [4]  
3
  [4]  
3 3 2
CIG 100 50 50 50 30
  [18]  
30
  [18]  
30
  [18]  
30
  [18]  
12
  [8]  
12
  [8]  
12
  [8]  
12 12 4
Cover BKN BKN BKN BKN OVC
  [OVC]  
OVC
  [OVC]  
OVC
  [OVC]  
OVC
  [OVC]  
OVC
  [OVC]  
OVC
  [OVC]  
OVC
  [OVC]  
OVC OVC OVC
FltCat VFR VFR VFR VFR MVFR
  [MVFR]  
MVFR
  [MVFR]  
MVFR
  [MVFR]  
MVFR
  [MVFR]  
MVFR
  [IFR]  
MVFR
  [IFR]  
MVFR
  [IFR]  
MVFR MVFR LIFR
WX -- -- -- -- --
  [-SN -PL]  
--
  [-SN -PL]  
--
  [-SN -PL]  
--
  [-SN -PL]  
BR
  [-FZRA]  
BR
  [-FZRA]  
BR
  [-FZRA]  
BR BR BR
WDir 150 150 150 150 170
[170]
170
[170]
170
[170]
170
[170]
160
[160]
160
[160]
160
[160]
160 160 200
WSpd 7 5 5 5 7
  [7]  
7
  [7]  
7
  [7]  
7
  [7]  
10
  [10]  
10
  [10]  
10
  [10]  
10 10 10
WGst -- -- -- -- --
  [--]  
--
  [--]  
--
  [--]  
--
  [--]  
--
  [--]  
--
  [--]  
--
  [--]  
-- -- --
R01/19
XWnd -4 -3 -3 -3 -1 -1 -1 -1 -4 -4 -4 -4 -4 3
XGst -- -- -- -- 0 0 0 0 0 0 0 -- -- --
HWnd -6 -4 -4 -4 -7 -7 -7 -7 -9 -9 -9 -9 -9 -9
HGst -- -- -- -- 0 0 0 0 0 0 0 -- -- --
R12/30
XWnd -4 -3 -3 -3 -6 -6 -6 -6 -8 -8 -8 -8 -8 -10
XGst -- -- -- -- 0 0 0 0 0 0 0 -- -- --
HWnd 5 4 4 4 4 4 4 4 7 7 7 7 7 0
HGst -- -- -- -- 0 0 0 0 0 0 0 -- -- --

NOTE: TEMPO conditions in [brackets]. Keep in mind TEMPO conditions might be better (lower impact) than prevailing conditions.

Raw TAF
KIAD 031143Z 0312/0418 06004KT P6SM OVC150
  FM031400 15005KT P6SM BKN050
  FM031800 17007KT P6SM OVC030
  TEMPO 0318/0322 6SM -SNPL OVC018
  FM032200 16010KT 3SM BR OVC012
  TEMPO 0322/0401 4SM -FZRA OVC008
  FM040300 20010KT 2SM BR OVC004
  FM041000 21005KT 2SM -RA OVC004


Raw METAR
KIAD 031452Z 15007KT 10SM FEW040 BKN100 BKN200 M01/M10 A3040 RMK AO2 SLP297 T10061100 58004
KIAD 031352Z 15005KT 10SM BKN100 BKN150 OVC230 M01/M10 A3043 RMK AO2 SLP306 T10111100
KIAD 031252Z 00000KT 10SM SCT050 OVC100 M02/M09 A3044 RMK AO2 SLP310 T10221089
KIAD 031152Z 00000KT 10SM FEW120 SCT250 M03/M09 A3041 RMK AO2 SLP301 T10331094 11017 21039 50002

METAR Board
Radar Display
Forecast Discussion

TAF Board Legend

Potential Impact
Threat None Slight Moderate High
Visibility (sm) ≥5.1 5.1>X≥3 3>X≥1 <1
Ceiling (100 ft) ≥30.1 30.1>X≥10 10>X≥5 <5
Wind Speed (kt) <10 10≤X<20 20≤X<30 ≥30
Wind Gust (kt) <15 15≤X<25 25≤X<35 ≥35
Weather No Wx Reported VCTS,-TS,-FZRA,SN TS,FZRA +TS,+FZRA,+SN